Terminal Aerodrome Forecast
Issued by NWS Lubbock, TX

Current Version | Previous Version | Text Only | Print | Product List | Glossary On
Versions: 1 2 3 4 5 6 7 8 9 10 11 12 13 14 15 16 17 18 19 20 21 22 23 24
000
FTUS44 KLUB 301643 AAA
TAFLBB
TAF AMD
KLBB 301643Z 3017/3112 07006KT P6SM FEW012 BKN018 BKN050
      TEMPO 3018/3021 5SM -TSRA SCT009 BKN015CB OVC050
     FM302100 07010KT P6SM VCTS BKN030CB BKN050
     FM310500 06009KT P6SM SCT040 SCT080=

USA.gov is the U.S. government's official web portal to all federal, state and local government web resources and services.